sensor_id;sensor_type;location;lat;lon;timestamp;P1;durP1;ratioP1;P2;durP2;ratioP2
8564;SDS011;4320;51.498;6.556;2023-07-31T00:00:11;8.98;;;5.40;;
8564;SDS011;4320;51.498;6.556;2023-07-31T00:02:37;12.07;;;5.13;;
8564;SDS011;4320;51.498;6.556;2023-07-31T00:05:03;10.88;;;5.22;;
8564;SDS011;4320;51.498;6.556;2023-07-31T00:07:29;11.95;;;5.72;;
8564;SDS011;4320;51.498;6.556;2023-07-31T00:09:54;15.73;;;5.38;;
8564;SDS011;4320;51.498;6.556;2023-07-31T00:12:21;12.30;;;5.90;;
8564;SDS011;4320;51.498;6.556;2023-07-31T00:14:47;10.18;;;5.40;;
8564;SDS011;4320;51.498;6.556;2023-07-31T00:17:13;12.68;;;5.93;;
8564;SDS011;4320;51.498;6.556;2023-07-31T00:19:38;15.27;;;5.72;;
8564;SDS011;4320;51.498;6.556;2023-07-31T00:22:04;9.57;;;5.65;;
8564;SDS011;4320;51.498;6.556;2023-07-31T00:24:30;14.05;;;6.15;;
8564;SDS011;4320;51.498;6.556;2023-07-31T00:26:55;15.27;;;5.82;;
8564;SDS011;4320;51.498;6.556;2023-07-31T00:29:21;17.10;;;6.47;;
8564;SDS011;4320;51.498;6.556;2023-07-31T00:31:47;18.08;;;6.70;;
8564;SDS011;4320;51.498;6.556;2023-07-31T00:34:12;15.32;;;5.75;;
8564;SDS011;4320;51.498;6.556;2023-07-31T00:36:38;16.48;;;5.82;;
8564;SDS011;4320;51.498;6.556;2023-07-31T00:39:03;15.55;;;6.43;;
8564;SDS011;4320;51.498;6.556;2023-07-31T00:41:29;17.38;;;6.22;;
8564;SDS011;4320;51.498;6.556;2023-07-31T00:43:55;13.65;;;5.60;;
8564;SDS011;4320;51.498;6.556;2023-07-31T00:46:21;16.77;;;5.97;;
8564;SDS011;4320;51.498;6.556;2023-07-31T00:48:46;17.73;;;6.57;;
8564;SDS011;4320;51.498;6.556;2023-07-31T00:51:12;15.88;;;6.38;;
8564;SDS011;4320;51.498;6.556;2023-07-31T00:53:38;10.63;;;5.95;;
8564;SDS011;4320;51.498;6.556;2023-07-31T00:56:05;12.23;;;6.10;;
8564;SDS011;4320;51.498;6.556;2023-07-31T00:58:31;15.65;;;6.03;;
8564;SDS011;4320;51.498;6.556;2023-07-31T01:00:57;15.18;;;6.38;;
8564;SDS011;4320;51.498;6.556;2023-07-31T01:03:22;9.55;;;5.28;;
8564;SDS011;4320;51.498;6.556;2023-07-31T01:08:34;19.38;;;6.30;;
8564;SDS011;4320;51.498;6.556;2023-07-31T01:11:46;12.77;;;5.40;;
8564;SDS011;4320;51.498;6.556;2023-07-31T01:14:09;12.27;;;5.32;;
8564;SDS011;4320;51.498;6.556;2023-07-31T01:16:35;14.30;;;5.20;;
8564;SDS011;4320;51.498;6.556;2023-07-31T01:19:00;14.00;;;5.45;;
8564;SDS011;4320;51.498;6.556;2023-07-31T01:21:32;13.68;;;5.15;;
8564;SDS011;4320;51.498;6.556;2023-07-31T01:26:49;12.57;;;4.65;;
8564;SDS011;4320;51.498;6.556;2023-07-31T01:31:57;15.77;;;4.75;;
8564;SDS011;4320;51.498;6.556;2023-07-31T01:34:26;10.52;;;4.55;;
8564;SDS011;4320;51.498;6.556;2023-07-31T01:36:53;12.70;;;4.75;;
8564;SDS011;4320;51.498;6.556;2023-07-31T01:39:20;10.63;;;5.03;;
8564;SDS011;4320;51.498;6.556;2023-07-31T01:41:46;10.52;;;5.00;;
8564;SDS011;4320;51.498;6.556;2023-07-31T01:44:11;13.57;;;5.10;;
8564;SDS011;4320;51.498;6.556;2023-07-31T01:46:37;15.43;;;5.78;;
8564;SDS011;4320;51.498;6.556;2023-07-31T01:49:02;9.38;;;4.53;;
8564;SDS011;4320;51.498;6.556;2023-07-31T01:51:30;14.52;;;5.60;;
8564;SDS011;4320;51.498;6.556;2023-07-31T01:53:58;19.13;;;5.93;;
8564;SDS011;4320;51.498;6.556;2023-07-31T01:56:25;12.82;;;5.20;;
8564;SDS011;4320;51.498;6.556;2023-07-31T01:58:50;13.98;;;4.93;;
8564;SDS011;4320;51.498;6.556;2023-07-31T02:01:16;13.70;;;5.03;;
8564;SDS011;4320;51.498;6.556;2023-07-31T02:03:41;12.63;;;4.53;;
8564;SDS011;4320;51.498;6.556;2023-07-31T02:06:07;17.17;;;5.47;;
8564;SDS011;4320;51.498;6.556;2023-07-31T02:08:33;12.02;;;4.75;;
8564;SDS011;4320;51.498;6.556;2023-07-31T02:10:58;15.00;;;5.15;;
8564;SDS011;4320;51.498;6.556;2023-07-31T02:13:24;15.38;;;5.00;;
8564;SDS011;4320;51.498;6.556;2023-07-31T02:15:50;16.00;;;4.70;;
8564;SDS011;4320;51.498;6.556;2023-07-31T02:18:16;12.30;;;5.10;;
8564;SDS011;4320;51.498;6.556;2023-07-31T02:20:41;8.73;;;4.65;;
8564;SDS011;4320;51.498;6.556;2023-07-31T02:23:07;13.82;;;4.57;;
8564;SDS011;4320;51.498;6.556;2023-07-31T02:25:33;14.23;;;4.97;;
8564;SDS011;4320;51.498;6.556;2023-07-31T02:27:58;10.18;;;4.53;;
8564;SDS011;4320;51.498;6.556;2023-07-31T02:30:24;14.10;;;5.10;;
8564;SDS011;4320;51.498;6.556;2023-07-31T02:32:49;15.75;;;4.97;;
8564;SDS011;4320;51.498;6.556;2023-07-31T02:35:15;10.43;;;4.97;;
8564;SDS011;4320;51.498;6.556;2023-07-31T02:37:41;15.75;;;5.20;;
8564;SDS011;4320;51.498;6.556;2023-07-31T02:40:07;12.77;;;5.25;;
8564;SDS011;4320;51.498;6.556;2023-07-31T02:42:33;11.80;;;4.93;;
8564;SDS011;4320;51.498;6.556;2023-07-31T02:44:59;14.93;;;5.25;;
8564;SDS011;4320;51.498;6.556;2023-07-31T02:47:24;12.20;;;5.63;;
8564;SDS011;4320;51.498;6.556;2023-07-31T02:49:50;9.52;;;4.93;;
8564;SDS011;4320;51.498;6.556;2023-07-31T02:52:15;11.00;;;4.93;;
8564;SDS011;4320;51.498;6.556;2023-07-31T02:54:41;13.52;;;5.55;;
8564;SDS011;4320;51.498;6.556;2023-07-31T02:57:07;13.82;;;5.50;;
8564;SDS011;4320;51.498;6.556;2023-07-31T02:59:32;15.32;;;5.68;;
8564;SDS011;4320;51.498;6.556;2023-07-31T03:01:58;12.10;;;5.00;;
8564;SDS011;4320;51.498;6.556;2023-07-31T03:04:23;12.82;;;5.88;;
8564;SDS011;4320;51.498;6.556;2023-07-31T03:06:49;13.55;;;4.97;;
8564;SDS011;4320;51.498;6.556;2023-07-31T03:09:15;13.07;;;4.72;;
8564;SDS011;4320;51.498;6.556;2023-07-31T03:11:40;10.13;;;4.57;;
8564;SDS011;4320;51.498;6.556;2023-07-31T03:14:06;15.35;;;5.72;;
8564;SDS011;4320;51.498;6.556;2023-07-31T03:16:31;13.57;;;5.00;;
8564;SDS011;4320;51.498;6.556;2023-07-31T03:18:57;15.73;;;5.30;;
8564;SDS011;4320;51.498;6.556;2023-07-31T03:21:23;11.98;;;5.20;;
8564;SDS011;4320;51.498;6.556;2023-07-31T03:23:48;9.88;;;4.40;;
8564;SDS011;4320;51.498;6.556;2023-07-31T03:26:14;16.33;;;6.05;;
8564;SDS011;4320;51.498;6.556;2023-07-31T03:28:39;10.00;;;4.35;;
8564;SDS011;4320;51.498;6.556;2023-07-31T03:31:05;12.43;;;4.78;;
8564;SDS011;4320;51.498;6.556;2023-07-31T03:33:31;10.90;;;5.00;;
8564;SDS011;4320;51.498;6.556;2023-07-31T03:35:56;11.85;;;5.30;;
8564;SDS011;4320;51.498;6.556;2023-07-31T03:38:22;16.48;;;5.30;;
8564;SDS011;4320;51.498;6.556;2023-07-31T03:40:48;12.50;;;5.57;;
8564;SDS011;4320;51.498;6.556;2023-07-31T03:43:14;15.25;;;5.30;;
8564;SDS011;4320;51.498;6.556;2023-07-31T03:45:40;13.77;;;5.38;;
8564;SDS011;4320;51.498;6.556;2023-07-31T03:48:06;11.57;;;5.15;;
8564;SDS011;4320;51.498;6.556;2023-07-31T03:50:32;14.07;;;5.50;;
8564;SDS011;4320;51.498;6.556;2023-07-31T03:52:58;14.50;;;5.18;;
8564;SDS011;4320;51.498;6.556;2023-07-31T03:55:24;9.60;;;4.28;;
8564;SDS011;4320;51.498;6.556;2023-07-31T03:57:49;13.85;;;4.93;;
8564;SDS011;4320;51.498;6.556;2023-07-31T04:00:15;14.43;;;4.72;;
8564;SDS011;4320;51.498;6.556;2023-07-31T04:02:40;11.48;;;4.72;;
8564;SDS011;4320;51.498;6.556;2023-07-31T04:05:06;11.02;;;4.32;;
8564;SDS011;4320;51.498;6.556;2023-07-31T04:07:32;13.38;;;5.28;;
8564;SDS011;4320;51.498;6.556;2023-07-31T04:09:59;12.43;;;4.45;;
8564;SDS011;4320;51.498;6.556;2023-07-31T04:12:24;16.05;;;4.88;;
8564;SDS011;4320;51.498;6.556;2023-07-31T04:14:50;14.70;;;5.20;;
8564;SDS011;4320;51.498;6.556;2023-07-31T04:17:17;17.67;;;5.20;;
8564;SDS011;4320;51.498;6.556;2023-07-31T04:19:43;11.70;;;5.07;;
8564;SDS011;4320;51.498;6.556;2023-07-31T04:22:08;9.07;;;4.40;;
8564;SDS011;4320;51.498;6.556;2023-07-31T04:24:34;17.92;;;5.05;;
8564;SDS011;4320;51.498;6.556;2023-07-31T04:27:00;15.07;;;4.90;;
8564;SDS011;4320;51.498;6.556;2023-07-31T04:29:25;12.80;;;4.97;;
8564;SDS011;4320;51.498;6.556;2023-07-31T04:31:51;10.13;;;4.22;;
8564;SDS011;4320;51.498;6.556;2023-07-31T04:34:16;10.13;;;4.68;;
8564;SDS011;4320;51.498;6.556;2023-07-31T04:36:42;10.48;;;5.03;;
8564;SDS011;4320;51.498;6.556;2023-07-31T04:39:07;13.63;;;5.22;;
8564;SDS011;4320;51.498;6.556;2023-07-31T04:41:33;14.82;;;5.10;;
8564;SDS011;4320;51.498;6.556;2023-07-31T04:43:59;10.95;;;4.35;;
8564;SDS011;4320;51.498;6.556;2023-07-31T04:46:24;14.88;;;4.28;;
8564;SDS011;4320;51.498;6.556;2023-07-31T04:48:50;11.48;;;5.25;;
8564;SDS011;4320;51.498;6.556;2023-07-31T04:51:15;11.00;;;4.85;;
8564;SDS011;4320;51.498;6.556;2023-07-31T04:53:41;12.98;;;4.95;;
8564;SDS011;4320;51.498;6.556;2023-07-31T04:56:06;12.45;;;5.00;;
8564;SDS011;4320;51.498;6.556;2023-07-31T04:58:32;11.35;;;4.70;;
8564;SDS011;4320;51.498;6.556;2023-07-31T05:00:58;10.38;;;5.07;;
8564;SDS011;4320;51.498;6.556;2023-07-31T05:03:23;12.55;;;5.00;;
8564;SDS011;4320;51.498;6.556;2023-07-31T05:05:49;13.98;;;5.50;;
8564;SDS011;4320;51.498;6.556;2023-07-31T05:08:15;10.10;;;5.10;;
8564;SDS011;4320;51.498;6.556;2023-07-31T05:10:42;11.30;;;4.85;;
8564;SDS011;4320;51.498;6.556;2023-07-31T05:13:08;9.05;;;4.70;;
8564;SDS011;4320;51.498;6.556;2023-07-31T05:15:34;10.98;;;4.90;;
8564;SDS011;4320;51.498;6.556;2023-07-31T05:17:59;11.30;;;5.10;;
8564;SDS011;4320;51.498;6.556;2023-07-31T05:20:25;11.38;;;4.63;;
8564;SDS011;4320;51.498;6.556;2023-07-31T05:22:51;10.27;;;4.88;;
8564;SDS011;4320;51.498;6.556;2023-07-31T05:25:16;10.43;;;5.70;;
8564;SDS011;4320;51.498;6.556;2023-07-31T05:27:42;9.55;;;5.30;;
8564;SDS011;4320;51.498;6.556;2023-07-31T05:30:08;8.85;;;5.10;;
8564;SDS011;4320;51.498;6.556;2023-07-31T05:32:33;8.82;;;4.80;;
8564;SDS011;4320;51.498;6.556;2023-07-31T05:34:59;8.25;;;4.60;;
8564;SDS011;4320;51.498;6.556;2023-07-31T05:37:25;9.18;;;4.20;;
8564;SDS011;4320;51.498;6.556;2023-07-31T05:39:50;9.20;;;4.90;;
8564;SDS011;4320;51.498;6.556;2023-07-31T05:42:17;9.20;;;4.93;;
8564;SDS011;4320;51.498;6.556;2023-07-31T05:44:42;9.48;;;4.88;;
8564;SDS011;4320;51.498;6.556;2023-07-31T05:47:08;10.18;;;4.72;;
8564;SDS011;4320;51.498;6.556;2023-07-31T05:49:34;6.53;;;4.60;;
8564;SDS011;4320;51.498;6.556;2023-07-31T05:52:00;11.00;;;5.10;;
8564;SDS011;4320;51.498;6.556;2023-07-31T05:54:25;9.30;;;5.28;;
8564;SDS011;4320;51.498;6.556;2023-07-31T05:56:51;8.90;;;4.70;;
8564;SDS011;4320;51.498;6.556;2023-07-31T05:59:17;7.53;;;4.75;;
8564;SDS011;4320;51.498;6.556;2023-07-31T06:01:42;7.90;;;5.00;;
8564;SDS011;4320;51.498;6.556;2023-07-31T06:04:08;8.52;;;4.80;;
8564;SDS011;4320;51.498;6.556;2023-07-31T06:06:33;6.97;;;4.20;;
8564;SDS011;4320;51.498;6.556;2023-07-31T06:08:59;13.13;;;4.82;;
8564;SDS011;4320;51.498;6.556;2023-07-31T06:11:25;8.10;;;4.88;;
8564;SDS011;4320;51.498;6.556;2023-07-31T06:13:51;9.82;;;5.72;;
8564;SDS011;4320;51.498;6.556;2023-07-31T06:16:16;11.07;;;5.78;;
8564;SDS011;4320;51.498;6.556;2023-07-31T06:18:42;10.93;;;5.97;;
8564;SDS011;4320;51.498;6.556;2023-07-31T06:21:08;8.77;;;5.65;;
8564;SDS011;4320;51.498;6.556;2023-07-31T06:23:35;10.18;;;5.20;;
8564;SDS011;4320;51.498;6.556;2023-07-31T06:26:01;9.20;;;5.10;;
8564;SDS011;4320;51.498;6.556;2023-07-31T06:28:31;7.72;;;5.28;;
8564;SDS011;4320;51.498;6.556;2023-07-31T06:30:57;9.35;;;5.35;;
8564;SDS011;4320;51.498;6.556;2023-07-31T06:33:23;9.45;;;5.22;;
8564;SDS011;4320;51.498;6.556;2023-07-31T06:35:49;8.98;;;4.72;;
8564;SDS011;4320;51.498;6.556;2023-07-31T06:38:15;6.05;;;4.90;;
8564;SDS011;4320;51.498;6.556;2023-07-31T06:40:44;8.57;;;4.93;;
8564;SDS011;4320;51.498;6.556;2023-07-31T06:43:10;7.88;;;4.85;;
8564;SDS011;4320;51.498;6.556;2023-07-31T06:45:36;8.02;;;4.90;;
8564;SDS011;4320;51.498;6.556;2023-07-31T06:48:02;8.77;;;5.38;;
8564;SDS011;4320;51.498;6.556;2023-07-31T06:50:29;8.35;;;5.57;;
8564;SDS011;4320;51.498;6.556;2023-07-31T06:52:55;7.78;;;5.13;;
8564;SDS011;4320;51.498;6.556;2023-07-31T06:55:21;9.15;;;5.63;;
8564;SDS011;4320;51.498;6.556;2023-07-31T06:57:47;7.35;;;4.90;;
8564;SDS011;4320;51.498;6.556;2023-07-31T07:00:14;8.77;;;5.28;;
8564;SDS011;4320;51.498;6.556;2023-07-31T07:02:41;7.28;;;4.85;;
8564;SDS011;4320;51.498;6.556;2023-07-31T07:05:07;8.75;;;5.32;;
8564;SDS011;4320;51.498;6.556;2023-07-31T07:07:33;8.88;;;5.03;;
8564;SDS011;4320;51.498;6.556;2023-07-31T07:09:59;8.75;;;5.45;;
8564;SDS011;4320;51.498;6.556;2023-07-31T07:12:24;10.13;;;5.05;;
8564;SDS011;4320;51.498;6.556;2023-07-31T07:14:50;11.18;;;5.38;;
8564;SDS011;4320;51.498;6.556;2023-07-31T07:17:18;7.28;;;4.63;;
8564;SDS011;4320;51.498;6.556;2023-07-31T07:19:44;7.88;;;4.90;;
8564;SDS011;4320;51.498;6.556;2023-07-31T07:22:10;11.18;;;4.93;;
8564;SDS011;4320;51.498;6.556;2023-07-31T07:24:36;8.93;;;4.93;;
8564;SDS011;4320;51.498;6.556;2023-07-31T07:27:02;10.95;;;4.97;;
8564;SDS011;4320;51.498;6.556;2023-07-31T07:29:28;10.50;;;5.05;;
8564;SDS011;4320;51.498;6.556;2023-07-31T07:31:54;7.65;;;4.85;;
8564;SDS011;4320;51.498;6.556;2023-07-31T07:34:19;6.72;;;4.43;;
8564;SDS011;4320;51.498;6.556;2023-07-31T07:36:48;7.32;;;4.80;;
8564;SDS011;4320;51.498;6.556;2023-07-31T07:39:14;8.02;;;4.80;;
8564;SDS011;4320;51.498;6.556;2023-07-31T07:41:39;9.35;;;4.85;;
8564;SDS011;4320;51.498;6.556;2023-07-31T07:44:05;7.55;;;4.18;;
8564;SDS011;4320;51.498;6.556;2023-07-31T07:46:30;6.97;;;4.47;;
8564;SDS011;4320;51.498;6.556;2023-07-31T07:48:56;6.68;;;3.45;;
8564;SDS011;4320;51.498;6.556;2023-07-31T07:51:21;7.10;;;3.60;;
8564;SDS011;4320;51.498;6.556;2023-07-31T07:53:47;6.68;;;3.45;;
8564;SDS011;4320;51.498;6.556;2023-07-31T07:56:12;5.70;;;3.72;;
8564;SDS011;4320;51.498;6.556;2023-07-31T07:58:38;8.73;;;4.03;;
8564;SDS011;4320;51.498;6.556;2023-07-31T08:01:04;6.90;;;3.78;;
8564;SDS011;4320;51.498;6.556;2023-07-31T08:03:30;7.65;;;4.10;;
8564;SDS011;4320;51.498;6.556;2023-07-31T08:05:59;6.45;;;4.05;;
8564;SDS011;4320;51.498;6.556;2023-07-31T08:08:25;5.05;;;3.47;;
8564;SDS011;4320;51.498;6.556;2023-07-31T08:10:51;7.30;;;3.70;;
8564;SDS011;4320;51.498;6.556;2023-07-31T08:13:17;4.78;;;3.60;;
8564;SDS011;4320;51.498;6.556;2023-07-31T08:15:42;8.07;;;3.65;;
8564;SDS011;4320;51.498;6.556;2023-07-31T08:18:08;4.20;;;3.40;;
8564;SDS011;4320;51.498;6.556;2023-07-31T08:20:34;5.13;;;3.45;;
8564;SDS011;4320;51.498;6.556;2023-07-31T08:23:00;4.57;;;3.13;;
8564;SDS011;4320;51.498;6.556;2023-07-31T08:25:26;3.42;;;3.00;;
8564;SDS011;4320;51.498;6.556;2023-07-31T08:27:51;4.18;;;3.25;;
8564;SDS011;4320;51.498;6.556;2023-07-31T08:30:18;5.47;;;3.88;;
8564;SDS011;4320;51.498;6.556;2023-07-31T08:32:43;5.70;;;3.22;;
8564;SDS011;4320;51.498;6.556;2023-07-31T08:35:09;4.75;;;3.72;;
8564;SDS011;4320;51.498;6.556;2023-07-31T08:37:35;6.90;;;3.40;;
8564;SDS011;4320;51.498;6.556;2023-07-31T08:40:00;6.78;;;3.53;;
8564;SDS011;4320;51.498;6.556;2023-07-31T08:42:26;5.35;;;3.58;;
8564;SDS011;4320;51.498;6.556;2023-07-31T08:44:52;6.35;;;3.90;;
8564;SDS011;4320;51.498;6.556;2023-07-31T08:47:19;6.13;;;3.65;;
8564;SDS011;4320;51.498;6.556;2023-07-31T08:49:45;5.70;;;3.38;;
8564;SDS011;4320;51.498;6.556;2023-07-31T08:52:12;6.30;;;3.70;;
8564;SDS011;4320;51.498;6.556;2023-07-31T08:54:37;5.80;;;3.67;;
8564;SDS011;4320;51.498;6.556;2023-07-31T08:57:03;4.30;;;3.30;;
8564;SDS011;4320;51.498;6.556;2023-07-31T08:59:30;5.90;;;3.70;;
8564;SDS011;4320;51.498;6.556;2023-07-31T09:01:57;5.78;;;3.78;;
8564;SDS011;4320;51.498;6.556;2023-07-31T09:04:28;6.28;;;3.75;;
8564;SDS011;4320;51.498;6.556;2023-07-31T09:06:56;6.07;;;3.88;;
8564;SDS011;4320;51.498;6.556;2023-07-31T09:09:24;6.78;;;4.15;;
8564;SDS011;4320;51.498;6.556;2023-07-31T09:11:50;5.28;;;3.67;;
8564;SDS011;4320;51.498;6.556;2023-07-31T09:14:16;4.55;;;3.70;;
8564;SDS011;4320;51.498;6.556;2023-07-31T09:16:53;7.53;;;3.88;;
8564;SDS011;4320;51.498;6.556;2023-07-31T09:19:28;5.07;;;3.83;;
8564;SDS011;4320;51.498;6.556;2023-07-31T09:21:58;5.78;;;4.15;;
8564;SDS011;4320;51.498;6.556;2023-07-31T09:24:28;4.72;;;3.47;;
8564;SDS011;4320;51.498;6.556;2023-07-31T09:26:55;5.78;;;3.92;;
8564;SDS011;4320;51.498;6.556;2023-07-31T09:29:22;6.75;;;3.80;;
8564;SDS011;4320;51.498;6.556;2023-07-31T09:31:48;8.13;;;3.72;;
8564;SDS011;4320;51.498;6.556;2023-07-31T09:34:13;5.95;;;3.50;;
8564;SDS011;4320;51.498;6.556;2023-07-31T09:36:46;5.30;;;3.72;;
8564;SDS011;4320;51.498;6.556;2023-07-31T09:39:14;7.20;;;3.90;;
8564;SDS011;4320;51.498;6.556;2023-07-31T09:41:45;6.88;;;3.90;;
8564;SDS011;4320;51.498;6.556;2023-07-31T09:44:19;5.88;;;4.00;;
8564;SDS011;4320;51.498;6.556;2023-07-31T09:46:45;7.13;;;3.63;;
8564;SDS011;4320;51.498;6.556;2023-07-31T09:49:12;5.55;;;3.42;;
8564;SDS011;4320;51.498;6.556;2023-07-31T09:51:39;5.05;;;3.55;;
8564;SDS011;4320;51.498;6.556;2023-07-31T09:54:12;4.57;;;3.78;;
8564;SDS011;4320;51.498;6.556;2023-07-31T09:56:41;5.78;;;3.55;;
8564;SDS011;4320;51.498;6.556;2023-07-31T09:59:09;5.45;;;3.67;;
8564;SDS011;4320;51.498;6.556;2023-07-31T10:01:36;4.50;;;3.40;;
8564;SDS011;4320;51.498;6.556;2023-07-31T10:04:03;4.80;;;3.65;;
8564;SDS011;4320;51.498;6.556;2023-07-31T10:06:30;5.93;;;3.40;;
8564;SDS011;4320;51.498;6.556;2023-07-31T10:08:57;4.03;;;3.60;;
8564;SDS011;4320;51.498;6.556;2023-07-31T10:11:23;5.20;;;3.65;;
8564;SDS011;4320;51.498;6.556;2023-07-31T10:13:52;4.55;;;3.53;;
8564;SDS011;4320;51.498;6.556;2023-07-31T10:16:18;5.40;;;4.10;;
8564;SDS011;4320;51.498;6.556;2023-07-31T10:18:45;5.00;;;3.88;;
8564;SDS011;4320;51.498;6.556;2023-07-31T10:21:11;6.55;;;4.03;;
8564;SDS011;4320;51.498;6.556;2023-07-31T10:23:37;5.22;;;3.60;;
8564;SDS011;4320;51.498;6.556;2023-07-31T10:26:05;5.85;;;4.00;;
8564;SDS011;4320;51.498;6.556;2023-07-31T10:28:32;4.97;;;3.72;;
8564;SDS011;4320;51.498;6.556;2023-07-31T10:30:59;7.43;;;4.18;;
8564;SDS011;4320;51.498;6.556;2023-07-31T10:33:27;5.60;;;3.92;;
8564;SDS011;4320;51.498;6.556;2023-07-31T10:36:11;4.80;;;3.40;;
8564;SDS011;4320;51.498;6.556;2023-07-31T10:38:49;4.18;;;3.63;;
8564;SDS011;4320;51.498;6.556;2023-07-31T10:41:18;4.43;;;4.03;;
8564;SDS011;4320;51.498;6.556;2023-07-31T10:43:45;5.72;;;3.75;;
8564;SDS011;4320;51.498;6.556;2023-07-31T10:46:13;4.63;;;3.58;;
8564;SDS011;4320;51.498;6.556;2023-07-31T10:48:39;5.90;;;4.18;;
8564;SDS011;4320;51.498;6.556;2023-07-31T10:51:08;6.78;;;3.55;;
8564;SDS011;4320;51.498;6.556;2023-07-31T10:53:37;4.97;;;2.97;;
8564;SDS011;4320;51.498;6.556;2023-07-31T10:56:09;5.18;;;3.47;;
8564;SDS011;4320;51.498;6.556;2023-07-31T10:58:40;4.43;;;3.67;;
8564;SDS011;4320;51.498;6.556;2023-07-31T11:01:09;4.88;;;3.75;;
8564;SDS011;4320;51.498;6.556;2023-07-31T11:03:45;4.80;;;3.35;;
8564;SDS011;4320;51.498;6.556;2023-07-31T11:06:14;4.32;;;3.20;;
8564;SDS011;4320;51.498;6.556;2023-07-31T11:08:41;5.00;;;3.28;;
8564;SDS011;4320;51.498;6.556;2023-07-31T11:11:09;6.40;;;3.83;;
8564;SDS011;4320;51.498;6.556;2023-07-31T11:13:40;4.35;;;3.00;;
8564;SDS011;4320;51.498;6.556;2023-07-31T11:16:17;3.47;;;3.17;;
8564;SDS011;4320;51.498;6.556;2023-07-31T11:18:46;5.47;;;3.35;;
8564;SDS011;4320;51.498;6.556;2023-07-31T11:21:20;4.68;;;3.40;;
8564;SDS011;4320;51.498;6.556;2023-07-31T11:23:47;5.20;;;3.22;;
8564;SDS011;4320;51.498;6.556;2023-07-31T11:26:14;4.75;;;3.45;;
8564;SDS011;4320;51.498;6.556;2023-07-31T11:28:40;5.80;;;3.08;;
8564;SDS011;4320;51.498;6.556;2023-07-31T11:31:08;5.13;;;3.35;;
8564;SDS011;4320;51.498;6.556;2023-07-31T11:33:35;4.65;;;3.80;;
8564;SDS011;4320;51.498;6.556;2023-07-31T11:36:01;5.65;;;3.50;;
8564;SDS011;4320;51.498;6.556;2023-07-31T11:38:28;6.28;;;3.95;;
8564;SDS011;4320;51.498;6.556;2023-07-31T11:40:56;5.65;;;3.17;;
8564;SDS011;4320;51.498;6.556;2023-07-31T11:43:23;4.55;;;2.83;;
8564;SDS011;4320;51.498;6.556;2023-07-31T11:45:50;5.10;;;3.22;;
8564;SDS011;4320;51.498;6.556;2023-07-31T11:48:29;5.55;;;3.58;;
8564;SDS011;4320;51.498;6.556;2023-07-31T11:50:59;4.53;;;3.35;;
8564;SDS011;4320;51.498;6.556;2023-07-31T11:53:33;4.93;;;3.30;;
8564;SDS011;4320;51.498;6.556;2023-07-31T11:56:09;3.60;;;3.17;;
8564;SDS011;4320;51.498;6.556;2023-07-31T11:58:38;6.10;;;3.42;;
8564;SDS011;4320;51.498;6.556;2023-07-31T12:01:04;4.32;;;3.17;;
8564;SDS011;4320;51.498;6.556;2023-07-31T12:03:30;7.13;;;3.13;;
8564;SDS011;4320;51.498;6.556;2023-07-31T12:05:58;5.15;;;3.22;;
8564;SDS011;4320;51.498;6.556;2023-07-31T12:08:24;4.05;;;3.30;;
8564;SDS011;4320;51.498;6.556;2023-07-31T12:10:50;6.03;;;3.47;;
8564;SDS011;4320;51.498;6.556;2023-07-31T12:13:24;5.03;;;3.33;;
8564;SDS011;4320;51.498;6.556;2023-07-31T12:15:55;5.88;;;3.40;;
8564;SDS011;4320;51.498;6.556;2023-07-31T12:18:23;5.78;;;3.05;;
8564;SDS011;4320;51.498;6.556;2023-07-31T12:21:00;4.43;;;3.38;;
8564;SDS011;4320;51.498;6.556;2023-07-31T12:23:31;4.05;;;2.85;;
8564;SDS011;4320;51.498;6.556;2023-07-31T12:26:06;5.90;;;3.40;;
8564;SDS011;4320;51.498;6.556;2023-07-31T12:28:36;3.95;;;3.08;;
8564;SDS011;4320;51.498;6.556;2023-07-31T12:31:03;3.33;;;3.03;;
8564;SDS011;4320;51.498;6.556;2023-07-31T12:33:39;4.53;;;2.85;;
8564;SDS011;4320;51.498;6.556;2023-07-31T12:36:23;4.00;;;2.63;;
8564;SDS011;4320;51.498;6.556;2023-07-31T12:38:50;4.28;;;3.15;;
8564;SDS011;4320;51.498;6.556;2023-07-31T12:41:16;4.45;;;2.88;;
8564;SDS011;4320;51.498;6.556;2023-07-31T12:43:43;4.25;;;2.58;;
8564;SDS011;4320;51.498;6.556;2023-07-31T12:46:10;3.42;;;2.90;;
8564;SDS011;4320;51.498;6.556;2023-07-31T12:48:36;4.38;;;2.78;;
8564;SDS011;4320;51.498;6.556;2023-07-31T12:51:03;3.95;;;3.03;;
8564;SDS011;4320;51.498;6.556;2023-07-31T12:53:29;4.57;;;3.10;;
8564;SDS011;4320;51.498;6.556;2023-07-31T12:55:55;5.10;;;3.38;;
8564;SDS011;4320;51.498;6.556;2023-07-31T12:58:21;5.60;;;3.53;;
8564;SDS011;4320;51.498;6.556;2023-07-31T13:00:47;5.60;;;3.22;;
8564;SDS011;4320;51.498;6.556;2023-07-31T13:03:13;5.65;;;3.20;;
8564;SDS011;4320;51.498;6.556;2023-07-31T13:05:39;4.65;;;3.45;;
8564;SDS011;4320;51.498;6.556;2023-07-31T13:08:04;5.97;;;3.75;;
8564;SDS011;4320;51.498;6.556;2023-07-31T13:10:30;6.55;;;3.78;;
8564;SDS011;4320;51.498;6.556;2023-07-31T13:12:56;6.03;;;4.07;;
8564;SDS011;4320;51.498;6.556;2023-07-31T13:15:21;6.35;;;3.72;;
8564;SDS011;4320;51.498;6.556;2023-07-31T13:17:47;5.85;;;4.15;;
8564;SDS011;4320;51.498;6.556;2023-07-31T13:20:13;7.88;;;3.85;;
8564;SDS011;4320;51.498;6.556;2023-07-31T13:22:38;6.97;;;3.80;;
8564;SDS011;4320;51.498;6.556;2023-07-31T13:25:04;6.00;;;3.95;;
8564;SDS011;4320;51.498;6.556;2023-07-31T13:27:30;6.43;;;3.85;;
8564;SDS011;4320;51.498;6.556;2023-07-31T13:29:56;5.30;;;4.15;;
8564;SDS011;4320;51.498;6.556;2023-07-31T13:32:22;6.80;;;4.13;;
8564;SDS011;4320;51.498;6.556;2023-07-31T13:34:48;5.90;;;4.43;;
8564;SDS011;4320;51.498;6.556;2023-07-31T13:37:15;8.77;;;4.25;;
8564;SDS011;4320;51.498;6.556;2023-07-31T13:39:41;5.63;;;4.32;;
8564;SDS011;4320;51.498;6.556;2023-07-31T13:42:07;4.75;;;3.70;;
8564;SDS011;4320;51.498;6.556;2023-07-31T13:44:37;6.90;;;4.35;;
8564;SDS011;4320;51.498;6.556;2023-07-31T13:47:03;4.90;;;3.90;;
8564;SDS011;4320;51.498;6.556;2023-07-31T13:49:29;7.60;;;3.90;;
8564;SDS011;4320;51.498;6.556;2023-07-31T13:51:55;5.38;;;3.72;;
8564;SDS011;4320;51.498;6.556;2023-07-31T13:54:24;6.32;;;4.10;;
8564;SDS011;4320;51.498;6.556;2023-07-31T13:56:53;4.82;;;3.70;;
8564;SDS011;4320;51.498;6.556;2023-07-31T13:59:19;5.07;;;3.67;;
8564;SDS011;4320;51.498;6.556;2023-07-31T14:01:45;6.78;;;3.85;;
8564;SDS011;4320;51.498;6.556;2023-07-31T14:04:11;5.50;;;4.00;;
8564;SDS011;4320;51.498;6.556;2023-07-31T14:06:37;4.50;;;3.65;;
8564;SDS011;4320;51.498;6.556;2023-07-31T14:09:03;8.48;;;4.25;;
8564;SDS011;4320;51.498;6.556;2023-07-31T14:11:28;6.30;;;3.33;;
8564;SDS011;4320;51.498;6.556;2023-07-31T14:13:56;6.38;;;4.05;;
8564;SDS011;4320;51.498;6.556;2023-07-31T14:16:21;11.35;;;3.40;;
8564;SDS011;4320;51.498;6.556;2023-07-31T14:18:47;8.50;;;4.38;;
8564;SDS011;4320;51.498;6.556;2023-07-31T14:21:13;6.97;;;4.10;;
8564;SDS011;4320;51.498;6.556;2023-07-31T14:23:39;6.57;;;3.65;;
8564;SDS011;4320;51.498;6.556;2023-07-31T14:26:05;5.25;;;3.90;;
8564;SDS011;4320;51.498;6.556;2023-07-31T14:28:30;8.60;;;4.10;;
8564;SDS011;4320;51.498;6.556;2023-07-31T14:30:56;6.22;;;4.18;;
8564;SDS011;4320;51.498;6.556;2023-07-31T14:33:22;6.85;;;4.47;;
8564;SDS011;4320;51.498;6.556;2023-07-31T14:35:47;9.70;;;4.82;;
8564;SDS011;4320;51.498;6.556;2023-07-31T14:38:13;7.40;;;4.20;;
8564;SDS011;4320;51.498;6.556;2023-07-31T14:40:38;7.43;;;5.03;;
8564;SDS011;4320;51.498;6.556;2023-07-31T14:43:04;9.50;;;5.55;;
8564;SDS011;4320;51.498;6.556;2023-07-31T14:45:30;9.35;;;5.22;;
8564;SDS011;4320;51.498;6.556;2023-07-31T14:47:55;8.18;;;4.57;;
8564;SDS011;4320;51.498;6.556;2023-07-31T14:50:21;4.95;;;4.35;;
8564;SDS011;4320;51.498;6.556;2023-07-31T14:52:48;9.77;;;4.63;;
8564;SDS011;4320;51.498;6.556;2023-07-31T14:55:14;7.15;;;5.00;;
8564;SDS011;4320;51.498;6.556;2023-07-31T14:57:39;7.72;;;4.97;;
8564;SDS011;4320;51.498;6.556;2023-07-31T15:00:05;7.63;;;4.72;;
8564;SDS011;4320;51.498;6.556;2023-07-31T15:02:34;7.07;;;4.63;;
8564;SDS011;4320;51.498;6.556;2023-07-31T15:05:00;7.20;;;4.93;;
8564;SDS011;4320;51.498;6.556;2023-07-31T15:07:26;5.68;;;4.50;;
8564;SDS011;4320;51.498;6.556;2023-07-31T15:09:51;9.65;;;4.63;;
8564;SDS011;4320;51.498;6.556;2023-07-31T15:12:17;8.35;;;4.38;;
8564;SDS011;4320;51.498;6.556;2023-07-31T15:14:42;7.82;;;4.68;;